sensor_id;sensor_type;location;lat;lon;timestamp;P1;durP1;ratioP1;P2;durP2;ratioP2
2546;SDS011;1283;47.982;7.834;2024-03-25T00:00:34;5.53;;;1.70;;
2546;SDS011;1283;47.982;7.834;2024-03-25T00:03:00;4.03;;;1.40;;
2546;SDS011;1283;47.982;7.834;2024-03-25T00:05:26;4.82;;;1.48;;
2546;SDS011;1283;47.982;7.834;2024-03-25T00:07:52;5.93;;;1.63;;
2546;SDS011;1283;47.982;7.834;2024-03-25T00:10:18;7.43;;;1.90;;
2546;SDS011;1283;47.982;7.834;2024-03-25T00:12:45;4.78;;;1.60;;
2546;SDS011;1283;47.982;7.834;2024-03-25T00:15:13;6.57;;;1.77;;
2546;SDS011;1283;47.982;7.834;2024-03-25T00:17:39;2.42;;;1.50;;
2546;SDS011;1283;47.982;7.834;2024-03-25T00:20:06;5.03;;;2.20;;
2546;SDS011;1283;47.982;7.834;2024-03-25T00:22:34;4.07;;;1.95;;
2546;SDS011;1283;47.982;7.834;2024-03-25T00:25:01;4.53;;;1.60;;
2546;SDS011;1283;47.982;7.834;2024-03-25T00:27:26;5.32;;;1.77;;
2546;SDS011;1283;47.982;7.834;2024-03-25T00:29:54;4.93;;;2.20;;
2546;SDS011;1283;47.982;7.834;2024-03-25T00:32:21;6.15;;;2.13;;
2546;SDS011;1283;47.982;7.834;2024-03-25T00:34:47;7.10;;;1.85;;
2546;SDS011;1283;47.982;7.834;2024-03-25T00:37:13;4.85;;;1.90;;
2546;SDS011;1283;47.982;7.834;2024-03-25T00:39:39;5.60;;;2.08;;
2546;SDS011;1283;47.982;7.834;2024-03-25T00:42:05;7.00;;;1.63;;
2546;SDS011;1283;47.982;7.834;2024-03-25T00:44:32;3.03;;;1.33;;
2546;SDS011;1283;47.982;7.834;2024-03-25T00:46:57;6.20;;;1.90;;
2546;SDS011;1283;47.982;7.834;2024-03-25T00:49:25;4.20;;;1.67;;
2546;SDS011;1283;47.982;7.834;2024-03-25T00:51:51;8.27;;;1.70;;
2546;SDS011;1283;47.982;7.834;2024-03-25T00:54:18;6.93;;;1.58;;
2546;SDS011;1283;47.982;7.834;2024-03-25T00:56:43;3.22;;;1.58;;
2546;SDS011;1283;47.982;7.834;2024-03-25T00:59:11;4.78;;;1.70;;
2546;SDS011;1283;47.982;7.834;2024-03-25T01:01:36;4.32;;;1.30;;
2546;SDS011;1283;47.982;7.834;2024-03-25T01:04:03;6.82;;;2.10;;
2546;SDS011;1283;47.982;7.834;2024-03-25T01:06:30;3.80;;;1.90;;
2546;SDS011;1283;47.982;7.834;2024-03-25T01:08:56;4.30;;;2.10;;
2546;SDS011;1283;47.982;7.834;2024-03-25T01:11:22;5.20;;;2.03;;
2546;SDS011;1283;47.982;7.834;2024-03-25T01:13:48;3.83;;;2.20;;
2546;SDS011;1283;47.982;7.834;2024-03-25T01:16:14;6.07;;;1.77;;
2546;SDS011;1283;47.982;7.834;2024-03-25T01:18:40;3.65;;;1.60;;
2546;SDS011;1283;47.982;7.834;2024-03-25T01:21:06;6.88;;;1.95;;
2546;SDS011;1283;47.982;7.834;2024-03-25T01:23:34;5.22;;;1.90;;
2546;SDS011;1283;47.982;7.834;2024-03-25T01:25:59;6.78;;;1.85;;
2546;SDS011;1283;47.982;7.834;2024-03-25T01:28:26;8.52;;;1.90;;
2546;SDS011;1283;47.982;7.834;2024-03-25T01:30:51;5.85;;;2.10;;
2546;SDS011;1283;47.982;7.834;2024-03-25T01:33:17;9.10;;;2.20;;
2546;SDS011;1283;47.982;7.834;2024-03-25T01:35:43;7.20;;;2.20;;
2546;SDS011;1283;47.982;7.834;2024-03-25T01:38:10;5.15;;;1.60;;
2546;SDS011;1283;47.982;7.834;2024-03-25T01:40:36;5.07;;;1.50;;
2546;SDS011;1283;47.982;7.834;2024-03-25T01:43:03;6.82;;;1.90;;
2546;SDS011;1283;47.982;7.834;2024-03-25T01:45:29;4.15;;;1.45;;
2546;SDS011;1283;47.982;7.834;2024-03-25T01:47:56;6.35;;;2.20;;
2546;SDS011;1283;47.982;7.834;2024-03-25T01:50:23;4.78;;;2.15;;
2546;SDS011;1283;47.982;7.834;2024-03-25T01:52:51;3.92;;;1.98;;
2546;SDS011;1283;47.982;7.834;2024-03-25T01:55:16;8.27;;;2.15;;
2546;SDS011;1283;47.982;7.834;2024-03-25T01:57:46;4.65;;;2.00;;
2546;SDS011;1283;47.982;7.834;2024-03-25T02:00:11;5.07;;;2.10;;
2546;SDS011;1283;47.982;7.834;2024-03-25T02:02:41;4.30;;;2.33;;
2546;SDS011;1283;47.982;7.834;2024-03-25T02:05:09;5.82;;;2.20;;
2546;SDS011;1283;47.982;7.834;2024-03-25T02:07:35;4.10;;;2.03;;
2546;SDS011;1283;47.982;7.834;2024-03-25T02:10:01;3.45;;;2.00;;
2546;SDS011;1283;47.982;7.834;2024-03-25T02:12:29;3.97;;;2.13;;
2546;SDS011;1283;47.982;7.834;2024-03-25T02:14:56;8.25;;;3.08;;
2546;SDS011;1283;47.982;7.834;2024-03-25T02:17:23;4.38;;;2.30;;
2546;SDS011;1283;47.982;7.834;2024-03-25T02:19:49;6.05;;;2.50;;
2546;SDS011;1283;47.982;7.834;2024-03-25T02:22:15;6.22;;;2.17;;
2546;SDS011;1283;47.982;7.834;2024-03-25T02:24:41;5.78;;;2.45;;
2546;SDS011;1283;47.982;7.834;2024-03-25T02:27:09;5.82;;;2.60;;
2546;SDS011;1283;47.982;7.834;2024-03-25T02:29:39;3.85;;;1.98;;
2546;SDS011;1283;47.982;7.834;2024-03-25T02:32:06;8.77;;;2.72;;
2546;SDS011;1283;47.982;7.834;2024-03-25T02:34:31;5.38;;;2.40;;
2546;SDS011;1283;47.982;7.834;2024-03-25T02:36:58;5.97;;;2.47;;
2546;SDS011;1283;47.982;7.834;2024-03-25T02:41:50;8.00;;;2.13;;
2546;SDS011;1283;47.982;7.834;2024-03-25T02:46:43;6.03;;;2.17;;
2546;SDS011;1283;47.982;7.834;2024-03-25T02:49:08;4.72;;;1.45;;
2546;SDS011;1283;47.982;7.834;2024-03-25T02:51:35;7.10;;;2.08;;
2546;SDS011;1283;47.982;7.834;2024-03-25T02:56:27;5.60;;;2.38;;
2546;SDS011;1283;47.982;7.834;2024-03-25T03:01:20;5.97;;;2.00;;
2546;SDS011;1283;47.982;7.834;2024-03-25T03:03:45;4.43;;;1.98;;
2546;SDS011;1283;47.982;7.834;2024-03-25T03:06:11;3.95;;;1.80;;
2546;SDS011;1283;47.982;7.834;2024-03-25T03:11:03;5.95;;;2.08;;
2546;SDS011;1283;47.982;7.834;2024-03-25T03:15:55;10.35;;;2.53;;
2546;SDS011;1283;47.982;7.834;2024-03-25T03:20:48;3.95;;;2.47;;
2546;SDS011;1283;47.982;7.834;2024-03-25T03:23:14;3.95;;;2.30;;
2546;SDS011;1283;47.982;7.834;2024-03-25T03:25:40;7.70;;;2.35;;
2546;SDS011;1283;47.982;7.834;2024-03-25T03:30:32;3.38;;;2.20;;
2546;SDS011;1283;47.982;7.834;2024-03-25T03:35:25;6.25;;;2.13;;
2546;SDS011;1283;47.982;7.834;2024-03-25T03:37:51;4.90;;;3.03;;
2546;SDS011;1283;47.982;7.834;2024-03-25T03:40:17;5.97;;;2.80;;
2546;SDS011;1283;47.982;7.834;2024-03-25T03:45:09;6.32;;;2.35;;
2546;SDS011;1283;47.982;7.834;2024-03-25T03:50:01;3.42;;;2.17;;
2546;SDS011;1283;47.982;7.834;2024-03-25T03:54:54;3.80;;;2.13;;
2546;SDS011;1283;47.982;7.834;2024-03-25T03:59:46;3.78;;;2.10;;
2546;SDS011;1283;47.982;7.834;2024-03-25T04:04:38;6.82;;;1.90;;
2546;SDS011;1283;47.982;7.834;2024-03-25T04:09:31;5.32;;;1.80;;
2546;SDS011;1283;47.982;7.834;2024-03-25T04:11:58;6.13;;;2.30;;
2546;SDS011;1283;47.982;7.834;2024-03-25T04:14:25;4.13;;;2.15;;
2546;SDS011;1283;47.982;7.834;2024-03-25T04:19:18;3.75;;;2.38;;
2546;SDS011;1283;47.982;7.834;2024-03-25T04:24:10;7.47;;;1.98;;
2546;SDS011;1283;47.982;7.834;2024-03-25T04:29:03;6.97;;;2.03;;
2546;SDS011;1283;47.982;7.834;2024-03-25T04:33:55;4.32;;;2.00;;
2546;SDS011;1283;47.982;7.834;2024-03-25T04:38:46;5.60;;;2.28;;
2546;SDS011;1283;47.982;7.834;2024-03-25T04:43:39;8.10;;;2.47;;
2546;SDS011;1283;47.982;7.834;2024-03-25T04:46:04;4.90;;;1.95;;
2546;SDS011;1283;47.982;7.834;2024-03-25T04:50:55;6.82;;;2.90;;
2546;SDS011;1283;47.982;7.834;2024-03-25T04:55:46;7.80;;;2.15;;
2546;SDS011;1283;47.982;7.834;2024-03-25T05:00:38;3.10;;;1.77;;
2546;SDS011;1283;47.982;7.834;2024-03-25T05:03:04;8.23;;;2.47;;
2546;SDS011;1283;47.982;7.834;2024-03-25T05:05:30;6.60;;;2.38;;
2546;SDS011;1283;47.982;7.834;2024-03-25T05:10:21;3.75;;;2.00;;
2546;SDS011;1283;47.982;7.834;2024-03-25T05:15:12;5.00;;;1.58;;
2546;SDS011;1283;47.982;7.834;2024-03-25T05:17:39;5.68;;;2.50;;
2546;SDS011;1283;47.982;7.834;2024-03-25T05:20:05;5.00;;;2.10;;
2546;SDS011;1283;47.982;7.834;2024-03-25T05:22:31;7.68;;;2.15;;
2546;SDS011;1283;47.982;7.834;2024-03-25T05:27:22;6.50;;;2.08;;
2546;SDS011;1283;47.982;7.834;2024-03-25T05:32:14;5.00;;;2.33;;
2546;SDS011;1283;47.982;7.834;2024-03-25T05:37:06;5.43;;;2.20;;
2546;SDS011;1283;47.982;7.834;2024-03-25T05:39:31;7.78;;;2.40;;
2546;SDS011;1283;47.982;7.834;2024-03-25T05:44:22;8.20;;;2.38;;
2546;SDS011;1283;47.982;7.834;2024-03-25T05:49:13;5.28;;;1.85;;
2546;SDS011;1283;47.982;7.834;2024-03-25T05:54:05;9.33;;;1.97;;
2546;SDS011;1283;47.982;7.834;2024-03-25T05:58:56;5.10;;;2.22;;
2546;SDS011;1283;47.982;7.834;2024-03-25T06:03:47;8.70;;;2.17;;
2546;SDS011;1283;47.982;7.834;2024-03-25T06:06:13;4.32;;;2.05;;
2546;SDS011;1283;47.982;7.834;2024-03-25T06:11:05;5.97;;;2.47;;
2546;SDS011;1283;47.982;7.834;2024-03-25T06:15:56;4.72;;;2.40;;
2546;SDS011;1283;47.982;7.834;2024-03-25T06:20:47;4.13;;;2.30;;
2546;SDS011;1283;47.982;7.834;2024-03-25T06:25:48;5.35;;;2.20;;
2546;SDS011;1283;47.982;7.834;2024-03-25T06:28:14;4.55;;;2.40;;
2546;SDS011;1283;47.982;7.834;2024-03-25T06:33:24;5.75;;;2.47;;
2546;SDS011;1283;47.982;7.834;2024-03-25T06:36:07;6.80;;;2.58;;
2546;SDS011;1283;47.982;7.834;2024-03-25T06:38:33;6.60;;;2.55;;
2546;SDS011;1283;47.982;7.834;2024-03-25T06:41:00;3.55;;;2.00;;
2546;SDS011;1283;47.982;7.834;2024-03-25T06:43:25;8.07;;;2.10;;
2546;SDS011;1283;47.982;7.834;2024-03-25T06:45:51;4.63;;;2.00;;
2546;SDS011;1283;47.982;7.834;2024-03-25T06:48:16;4.85;;;1.80;;
2546;SDS011;1283;47.982;7.834;2024-03-25T06:50:51;4.13;;;2.03;;
2546;SDS011;1283;47.982;7.834;2024-03-25T06:53:17;3.30;;;2.00;;
2546;SDS011;1283;47.982;7.834;2024-03-25T06:55:50;5.63;;;1.95;;
2546;SDS011;1283;47.982;7.834;2024-03-25T06:58:17;3.20;;;1.85;;
2546;SDS011;1283;47.982;7.834;2024-03-25T07:00:44;6.18;;;1.80;;
2546;SDS011;1283;47.982;7.834;2024-03-25T07:03:09;3.08;;;1.45;;
2546;SDS011;1283;47.982;7.834;2024-03-25T07:05:35;3.35;;;1.88;;
2546;SDS011;1283;47.982;7.834;2024-03-25T07:08:00;6.78;;;2.20;;
2546;SDS011;1283;47.982;7.834;2024-03-25T07:10:26;5.32;;;2.08;;
2546;SDS011;1283;47.982;7.834;2024-03-25T07:12:51;4.28;;;2.00;;
2546;SDS011;1283;47.982;7.834;2024-03-25T07:15:18;2.10;;;1.42;;
2546;SDS011;1283;47.982;7.834;2024-03-25T07:17:44;3.42;;;1.83;;
2546;SDS011;1283;47.982;7.834;2024-03-25T07:20:09;4.22;;;1.90;;
2546;SDS011;1283;47.982;7.834;2024-03-25T07:22:35;3.30;;;1.75;;
2546;SDS011;1283;47.982;7.834;2024-03-25T07:25:01;6.90;;;2.05;;
2546;SDS011;1283;47.982;7.834;2024-03-25T07:27:26;3.50;;;1.60;;
2546;SDS011;1283;47.982;7.834;2024-03-25T07:29:52;3.60;;;2.03;;
2546;SDS011;1283;47.982;7.834;2024-03-25T07:32:19;9.30;;;2.40;;
2546;SDS011;1283;47.982;7.834;2024-03-25T07:34:44;4.53;;;1.80;;
2546;SDS011;1283;47.982;7.834;2024-03-25T07:37:10;4.18;;;1.92;;
2546;SDS011;1283;47.982;7.834;2024-03-25T07:39:37;7.30;;;2.65;;
2546;SDS011;1283;47.982;7.834;2024-03-25T07:42:02;3.88;;;1.80;;
2546;SDS011;1283;47.982;7.834;2024-03-25T07:44:28;7.35;;;1.55;;
2546;SDS011;1283;47.982;7.834;2024-03-25T07:46:54;3.50;;;1.20;;
2546;SDS011;1283;47.982;7.834;2024-03-25T07:49:22;5.47;;;1.67;;
2546;SDS011;1283;47.982;7.834;2024-03-25T07:51:47;5.57;;;2.38;;
2546;SDS011;1283;47.982;7.834;2024-03-25T07:54:13;6.90;;;1.75;;
2546;SDS011;1283;47.982;7.834;2024-03-25T07:56:38;3.50;;;2.00;;
2546;SDS011;1283;47.982;7.834;2024-03-25T07:59:04;5.72;;;1.60;;
2546;SDS011;1283;47.982;7.834;2024-03-25T08:01:29;4.60;;;2.30;;
2546;SDS011;1283;47.982;7.834;2024-03-25T08:03:55;5.72;;;1.55;;
2546;SDS011;1283;47.982;7.834;2024-03-25T08:06:22;5.20;;;2.15;;
2546;SDS011;1283;47.982;7.834;2024-03-25T08:08:47;5.57;;;1.90;;
2546;SDS011;1283;47.982;7.834;2024-03-25T08:11:13;6.32;;;1.77;;
2546;SDS011;1283;47.982;7.834;2024-03-25T08:13:38;4.85;;;1.60;;
2546;SDS011;1283;47.982;7.834;2024-03-25T08:16:04;4.13;;;1.33;;
2546;SDS011;1283;47.982;7.834;2024-03-25T08:20:55;4.68;;;1.75;;
2546;SDS011;1283;47.982;7.834;2024-03-25T08:23:22;1.95;;;1.35;;
2546;SDS011;1283;47.982;7.834;2024-03-25T08:25:48;3.83;;;1.60;;
2546;SDS011;1283;47.982;7.834;2024-03-25T08:28:13;5.35;;;1.70;;
2546;SDS011;1283;47.982;7.834;2024-03-25T08:30:39;3.72;;;1.60;;
2546;SDS011;1283;47.982;7.834;2024-03-25T08:33:05;4.90;;;1.67;;
2546;SDS011;1283;47.982;7.834;2024-03-25T08:35:30;3.17;;;1.60;;
2546;SDS011;1283;47.982;7.834;2024-03-25T08:37:56;5.65;;;1.63;;
2546;SDS011;1283;47.982;7.834;2024-03-25T08:40:22;2.70;;;1.27;;
2546;SDS011;1283;47.982;7.834;2024-03-25T08:42:48;2.88;;;1.40;;
2546;SDS011;1283;47.982;7.834;2024-03-25T08:45:14;4.88;;;1.33;;
2546;SDS011;1283;47.982;7.834;2024-03-25T08:47:39;5.18;;;1.40;;
2546;SDS011;1283;47.982;7.834;2024-03-25T08:50:05;4.15;;;1.40;;
2546;SDS011;1283;47.982;7.834;2024-03-25T08:52:31;3.05;;;2.00;;
2546;SDS011;1283;47.982;7.834;2024-03-25T08:54:56;3.97;;;1.40;;
2546;SDS011;1283;47.982;7.834;2024-03-25T08:57:23;2.03;;;1.30;;
2546;SDS011;1283;47.982;7.834;2024-03-25T08:59:49;2.58;;;1.40;;
2546;SDS011;1283;47.982;7.834;2024-03-25T09:02:14;5.80;;;1.40;;
2546;SDS011;1283;47.982;7.834;2024-03-25T09:04:40;2.00;;;1.20;;
2546;SDS011;1283;47.982;7.834;2024-03-25T09:07:05;4.60;;;1.42;;
2546;SDS011;1283;47.982;7.834;2024-03-25T09:09:31;5.13;;;1.48;;
2546;SDS011;1283;47.982;7.834;2024-03-25T09:12:15;1.70;;;1.20;;
2546;SDS011;1283;47.982;7.834;2024-03-25T09:14:42;3.35;;;1.17;;
2546;SDS011;1283;47.982;7.834;2024-03-25T09:17:07;3.22;;;1.13;;
2546;SDS011;1283;47.982;7.834;2024-03-25T09:19:33;2.25;;;1.10;;
2546;SDS011;1283;47.982;7.834;2024-03-25T09:21:58;4.55;;;1.20;;
2546;SDS011;1283;47.982;7.834;2024-03-25T09:24:24;3.60;;;1.42;;
2546;SDS011;1283;47.982;7.834;2024-03-25T09:26:49;6.03;;;1.50;;
2546;SDS011;1283;47.982;7.834;2024-03-25T09:29:15;3.42;;;1.02;;
2546;SDS011;1283;47.982;7.834;2024-03-25T09:31:42;2.65;;;1.00;;
2546;SDS011;1283;47.982;7.834;2024-03-25T09:34:07;2.15;;;0.90;;
2546;SDS011;1283;47.982;7.834;2024-03-25T09:36:33;3.65;;;1.00;;
2546;SDS011;1283;47.982;7.834;2024-03-25T09:38:58;1.92;;;1.02;;
2546;SDS011;1283;47.982;7.834;2024-03-25T09:41:24;6.03;;;1.30;;
2546;SDS011;1283;47.982;7.834;2024-03-25T09:43:52;2.40;;;1.20;;
2546;SDS011;1283;47.982;7.834;2024-03-25T09:46:20;5.38;;;1.52;;
2546;SDS011;1283;47.982;7.834;2024-03-25T09:51:12;1.60;;;1.05;;
2546;SDS011;1283;47.982;7.834;2024-03-25T09:53:38;5.15;;;1.00;;
2546;SDS011;1283;47.982;7.834;2024-03-25T09:56:03;3.25;;;0.95;;
2546;SDS011;1283;47.982;7.834;2024-03-25T09:58:29;2.40;;;1.15;;
2546;SDS011;1283;47.982;7.834;2024-03-25T10:00:55;3.45;;;1.13;;
2546;SDS011;1283;47.982;7.834;2024-03-25T10:03:21;1.73;;;0.90;;
2546;SDS011;1283;47.982;7.834;2024-03-25T10:05:48;3.97;;;1.20;;
2546;SDS011;1283;47.982;7.834;2024-03-25T10:08:13;4.95;;;0.85;;
2546;SDS011;1283;47.982;7.834;2024-03-25T10:10:39;3.08;;;0.88;;
2546;SDS011;1283;47.982;7.834;2024-03-25T10:13:05;4.78;;;1.33;;
2546;SDS011;1283;47.982;7.834;2024-03-25T10:15:30;4.93;;;0.98;;
2546;SDS011;1283;47.982;7.834;2024-03-25T10:17:56;3.80;;;1.00;;
2546;SDS011;1283;47.982;7.834;2024-03-25T10:20:22;4.15;;;0.95;;
2546;SDS011;1283;47.982;7.834;2024-03-25T10:22:48;4.75;;;1.00;;
2546;SDS011;1283;47.982;7.834;2024-03-25T10:25:21;1.58;;;0.90;;
2546;SDS011;1283;47.982;7.834;2024-03-25T10:27:54;3.58;;;1.00;;
2546;SDS011;1283;47.982;7.834;2024-03-25T10:30:20;2.92;;;1.33;;
2546;SDS011;1283;47.982;7.834;2024-03-25T10:32:45;3.22;;;0.90;;
2546;SDS011;1283;47.982;7.834;2024-03-25T10:35:11;3.50;;;0.95;;
2546;SDS011;1283;47.982;7.834;2024-03-25T10:37:38;5.13;;;1.35;;
2546;SDS011;1283;47.982;7.834;2024-03-25T10:40:06;3.50;;;0.75;;
2546;SDS011;1283;47.982;7.834;2024-03-25T10:42:36;3.90;;;1.30;;
2546;SDS011;1283;47.982;7.834;2024-03-25T10:45:04;3.92;;;1.02;;
2546;SDS011;1283;47.982;7.834;2024-03-25T10:47:30;2.28;;;0.90;;
2546;SDS011;1283;47.982;7.834;2024-03-25T10:49:57;5.03;;;1.10;;
2546;SDS011;1283;47.982;7.834;2024-03-25T10:52:23;2.13;;;1.00;;
2546;SDS011;1283;47.982;7.834;2024-03-25T10:54:49;8.98;;;3.03;;
2546;SDS011;1283;47.982;7.834;2024-03-25T10:57:16;3.03;;;1.20;;
2546;SDS011;1283;47.982;7.834;2024-03-25T10:59:42;3.03;;;1.00;;
2546;SDS011;1283;47.982;7.834;2024-03-25T11:02:08;1.63;;;0.95;;
2546;SDS011;1283;47.982;7.834;2024-03-25T11:04:34;2.72;;;1.45;;
2546;SDS011;1283;47.982;7.834;2024-03-25T11:07:06;5.22;;;1.92;;
2546;SDS011;1283;47.982;7.834;2024-03-25T11:09:32;4.35;;;1.00;;
2546;SDS011;1283;47.982;7.834;2024-03-25T11:11:58;6.32;;;1.30;;
2546;SDS011;1283;47.982;7.834;2024-03-25T11:14:26;8.02;;;1.52;;
2546;SDS011;1283;47.982;7.834;2024-03-25T11:16:51;2.22;;;1.25;;
2546;SDS011;1283;47.982;7.834;2024-03-25T11:19:18;5.57;;;1.00;;
2546;SDS011;1283;47.982;7.834;2024-03-25T11:21:43;2.60;;;1.08;;
2546;SDS011;1283;47.982;7.834;2024-03-25T11:24:09;3.10;;;1.10;;
2546;SDS011;1283;47.982;7.834;2024-03-25T11:26:40;3.58;;;1.10;;
2546;SDS011;1283;47.982;7.834;2024-03-25T11:29:06;4.97;;;1.40;;
2546;SDS011;1283;47.982;7.834;2024-03-25T11:31:33;2.25;;;1.00;;
2546;SDS011;1283;47.982;7.834;2024-03-25T11:34:03;3.70;;;1.17;;
2546;SDS011;1283;47.982;7.834;2024-03-25T11:36:29;2.42;;;1.10;;
2546;SDS011;1283;47.982;7.834;2024-03-25T11:38:58;2.55;;;0.90;;
2546;SDS011;1283;47.982;7.834;2024-03-25T11:41:24;6.13;;;0.90;;
2546;SDS011;1283;47.982;7.834;2024-03-25T11:43:50;3.45;;;1.35;;
2546;SDS011;1283;47.982;7.834;2024-03-25T11:46:17;2.90;;;1.33;;
2546;SDS011;1283;47.982;7.834;2024-03-25T11:48:44;2.42;;;1.00;;
2546;SDS011;1283;47.982;7.834;2024-03-25T11:51:11;7.40;;;1.30;;
2546;SDS011;1283;47.982;7.834;2024-03-25T11:53:37;5.43;;;1.40;;
2546;SDS011;1283;47.982;7.834;2024-03-25T11:56:03;3.20;;;1.20;;
2546;SDS011;1283;47.982;7.834;2024-03-25T11:58:28;2.70;;;1.27;;
2546;SDS011;1283;47.982;7.834;2024-03-25T12:00:54;1.92;;;1.00;;
2546;SDS011;1283;47.982;7.834;2024-03-25T12:03:19;2.40;;;0.95;;
2546;SDS011;1283;47.982;7.834;2024-03-25T12:05:46;5.10;;;1.10;;
2546;SDS011;1283;47.982;7.834;2024-03-25T12:08:12;5.63;;;1.00;;
2546;SDS011;1283;47.982;7.834;2024-03-25T12:10:37;4.65;;;1.10;;
2546;SDS011;1283;47.982;7.834;2024-03-25T12:13:22;1.55;;;0.88;;
2546;SDS011;1283;47.982;7.834;2024-03-25T12:15:47;2.75;;;1.05;;
2546;SDS011;1283;47.982;7.834;2024-03-25T12:18:13;3.42;;;1.17;;
2546;SDS011;1283;47.982;7.834;2024-03-25T12:20:39;3.47;;;1.05;;
2546;SDS011;1283;47.982;7.834;2024-03-25T12:23:05;4.38;;;1.10;;
2546;SDS011;1283;47.982;7.834;2024-03-25T12:25:31;1.45;;;1.00;;
2546;SDS011;1283;47.982;7.834;2024-03-25T12:27:57;2.92;;;1.30;;
2546;SDS011;1283;47.982;7.834;2024-03-25T12:30:23;4.75;;;1.02;;
2546;SDS011;1283;47.982;7.834;2024-03-25T12:32:50;1.42;;;0.90;;
2546;SDS011;1283;47.982;7.834;2024-03-25T12:35:17;3.80;;;1.45;;
2546;SDS011;1283;47.982;7.834;2024-03-25T12:37:43;1.80;;;0.90;;
2546;SDS011;1283;47.982;7.834;2024-03-25T12:40:12;7.63;;;1.15;;
2546;SDS011;1283;47.982;7.834;2024-03-25T12:42:38;3.67;;;0.95;;
2546;SDS011;1283;47.982;7.834;2024-03-25T12:45:04;2.65;;;0.82;;
2546;SDS011;1283;47.982;7.834;2024-03-25T12:49:56;2.67;;;1.23;;
2546;SDS011;1283;47.982;7.834;2024-03-25T12:52:21;2.80;;;0.95;;
2546;SDS011;1283;47.982;7.834;2024-03-25T12:54:47;1.38;;;0.90;;
2546;SDS011;1283;47.982;7.834;2024-03-25T12:57:14;2.40;;;0.85;;
2546;SDS011;1283;47.982;7.834;2024-03-25T12:59:39;4.63;;;1.15;;
2546;SDS011;1283;47.982;7.834;2024-03-25T13:02:05;3.72;;;1.00;;
2546;SDS011;1283;47.982;7.834;2024-03-25T13:04:33;3.33;;;1.00;;
2546;SDS011;1283;47.982;7.834;2024-03-25T13:06:59;2.10;;;0.90;;
2546;SDS011;1283;47.982;7.834;2024-03-25T13:09:24;3.80;;;1.50;;
2546;SDS011;1283;47.982;7.834;2024-03-25T13:11:50;1.63;;;0.90;;
2546;SDS011;1283;47.982;7.834;2024-03-25T13:14:16;4.15;;;1.02;;
2546;SDS011;1283;47.982;7.834;2024-03-25T13:16:42;1.83;;;0.93;;
2546;SDS011;1283;47.982;7.834;2024-03-25T13:19:08;1.55;;;1.10;;
2546;SDS011;1283;47.982;7.834;2024-03-25T13:21:33;3.00;;;1.00;;
2546;SDS011;1283;47.982;7.834;2024-03-25T13:23:59;2.70;;;1.13;;
2546;SDS011;1283;47.982;7.834;2024-03-25T13:26:25;3.35;;;1.30;;
2546;SDS011;1283;47.982;7.834;2024-03-25T13:28:51;2.67;;;0.93;;
2546;SDS011;1283;47.982;7.834;2024-03-25T13:31:18;2.85;;;1.00;;
2546;SDS011;1283;47.982;7.834;2024-03-25T13:33:43;3.72;;;1.10;;
2546;SDS011;1283;47.982;7.834;2024-03-25T13:36:09;1.58;;;0.82;;
2546;SDS011;1283;47.982;7.834;2024-03-25T13:38:34;4.13;;;1.20;;
2546;SDS011;1283;47.982;7.834;2024-03-25T13:41:00;3.15;;;0.73;;
2546;SDS011;1283;47.982;7.834;2024-03-25T13:45:51;2.42;;;0.88;;
2546;SDS011;1283;47.982;7.834;2024-03-25T13:48:18;3.03;;;0.77;;
2546;SDS011;1283;47.982;7.834;2024-03-25T13:50:44;3.63;;;0.90;;
2546;SDS011;1283;47.982;7.834;2024-03-25T13:53:09;1.35;;;0.77;;
2546;SDS011;1283;47.982;7.834;2024-03-25T13:55:35;3.40;;;1.00;;
2546;SDS011;1283;47.982;7.834;2024-03-25T13:58:01;2.35;;;0.90;;
2546;SDS011;1283;47.982;7.834;2024-03-25T14:00:26;2.97;;;0.90;;
2546;SDS011;1283;47.982;7.834;2024-03-25T14:02:52;1.80;;;1.02;;
2546;SDS011;1283;47.982;7.834;2024-03-25T14:05:19;5.05;;;1.30;;
2546;SDS011;1283;47.982;7.834;2024-03-25T14:07:45;1.98;;;0.75;;
2546;SDS011;1283;47.982;7.834;2024-03-25T14:10:10;3.88;;;1.40;;
2546;SDS011;1283;47.982;7.834;2024-03-25T14:12:36;2.42;;;0.93;;
2546;SDS011;1283;47.982;7.834;2024-03-25T14:15:01;1.90;;;0.70;;
2546;SDS011;1283;47.982;7.834;2024-03-25T14:17:27;3.05;;;0.68;;
2546;SDS011;1283;47.982;7.834;2024-03-25T14:19:53;8.23;;;0.93;;
2546;SDS011;1283;47.982;7.834;2024-03-25T14:22:20;3.28;;;1.70;;
2546;SDS011;1283;47.982;7.834;2024-03-25T14:24:46;2.88;;;0.65;;
2546;SDS011;1283;47.982;7.834;2024-03-25T14:27:12;3.10;;;1.15;;
2546;SDS011;1283;47.982;7.834;2024-03-25T14:29:37;4.32;;;1.13;;
2546;SDS011;1283;47.982;7.834;2024-03-25T14:32:03;2.85;;;0.82;;
2546;SDS011;1283;47.982;7.834;2024-03-25T14:34:29;1.63;;;0.90;;
2546;SDS011;1283;47.982;7.834;2024-03-25T14:36:54;2.35;;;0.77;;
2546;SDS011;1283;47.982;7.834;2024-03-25T14:39:21;3.83;;;0.60;;
2546;SDS011;1283;47.982;7.834;2024-03-25T14:41:47;1.92;;;0.80;;
2546;SDS011;1283;47.982;7.834;2024-03-25T14:44:13;4.95;;;0.80;;
2546;SDS011;1283;47.982;7.834;2024-03-25T14:46:38;1.75;;;0.80;;
2546;SDS011;1283;47.982;7.834;2024-03-25T14:49:04;1.40;;;0.90;;
2546;SDS011;1283;47.982;7.834;2024-03-25T14:51:29;3.83;;;0.93;;
2546;SDS011;1283;47.982;7.834;2024-03-25T14:53:55;2.30;;;0.70;;
2546;SDS011;1283;47.982;7.834;2024-03-25T14:56:22;2.33;;;1.00;;
2546;SDS011;1283;47.982;7.834;2024-03-25T14:58:48;1.75;;;0.80;;
2546;SDS011;1283;47.982;7.834;2024-03-25T15:01:14;1.10;;;0.60;;
2546;SDS011;1283;47.982;7.834;2024-03-25T15:03:39;4.05;;;0.70;;
2546;SDS011;1283;47.982;7.834;2024-03-25T15:06:05;4.70;;;0.90;;
2546;SDS011;1283;47.982;7.834;2024-03-25T15:08:31;2.42;;;0.90;;
2546;SDS011;1283;47.982;7.834;2024-03-25T15:10:56;3.83;;;0.85;;
2546;SDS011;1283;47.982;7.834;2024-03-25T15:13:23;2.85;;;0.90;;
2546;SDS011;1283;47.982;7.834;2024-03-25T15:15:49;4.43;;;1.10;;
2546;SDS011;1283;47.982;7.834;2024-03-25T15:18:14;2.05;;;0.80;;
2546;SDS011;1283;47.982;7.834;2024-03-25T15:20:40;3.78;;;1.02;;
2546;SDS011;1283;47.982;7.834;2024-03-25T15:23:05;4.70;;;0.93;;
2546;SDS011;1283;47.982;7.834;2024-03-25T15:25:31;1.77;;;0.95;;
2546;SDS011;1283;47.982;7.834;2024-03-25T15:27:56;3.60;;;1.00;;
2546;SDS011;1283;47.982;7.834;2024-03-25T15:30:23;1.80;;;0.75;;
2546;SDS011;1283;47.982;7.834;2024-03-25T15:32:49;3.70;;;1.05;;
2546;SDS011;1283;47.982;7.834;2024-03-25T15:35:15;2.15;;;0.88;;
2546;SDS011;1283;47.982;7.834;2024-03-25T15:37:40;5.82;;;0.93;;
2546;SDS011;1283;47.982;7.834;2024-03-25T15:40:07;3.78;;;1.10;;
2546;SDS011;1283;47.982;7.834;2024-03-25T15:42:33;2.25;;;1.00;;
2546;SDS011;1283;47.982;7.834;2024-03-25T15:47:26;3.25;;;1.10;;
2546;SDS011;1283;47.982;7.834;2024-03-25T15:49:52;1.15;;;0.63;;
2546;SDS011;1283;47.982;7.834;2024-03-25T15:52:17;2.00;;;0.80;;
2546;SDS011;1283;47.982;7.834;2024-03-25T15:54:43;1.67;;;0.82;;
2546;SDS011;1283;47.982;7.834;2024-03-25T15:57:09;1.88;;;0.77;;
2546;SDS011;1283;47.982;7.834;2024-03-25T15:59:34;1.90;;;0.80;;
2546;SDS011;1283;47.982;7.834;2024-03-25T16:02:00;2.38;;;0.85;;
2546;SDS011;1283;47.982;7.834;2024-03-25T16:04:27;4.15;;;0.90;;
2546;SDS011;1283;47.982;7.834;2024-03-25T16:06:52;4.45;;;1.08;;
2546;SDS011;1283;47.982;7.834;2024-03-25T16:09:18;6.32;;;1.38;;
2546;SDS011;1283;47.982;7.834;2024-03-25T16:11:44;1.88;;;0.90;;
2546;SDS011;1283;47.982;7.834;2024-03-25T16:14:09;2.85;;;1.20;;
2546;SDS011;1283;47.982;7.834;2024-03-25T16:16:35;4.43;;;1.27;;
2546;SDS011;1283;47.982;7.834;2024-03-25T16:19:00;1.95;;;0.80;;
2546;SDS011;1283;47.982;7.834;2024-03-25T16:21:27;1.13;;;0.90;;
2546;SDS011;1283;47.982;7.834;2024-03-25T16:23:53;2.17;;;0.98;;
2546;SDS011;1283;47.982;7.834;2024-03-25T16:26:18;2.05;;;1.00;;
2546;SDS011;1283;47.982;7.834;2024-03-25T16:28:44;1.80;;;1.00;;
2546;SDS011;1283;47.982;7.834;2024-03-25T16:31:09;3.78;;;0.75;;
2546;SDS011;1283;47.982;7.834;2024-03-25T16:33:35;2.63;;;0.90;;
2546;SDS011;1283;47.982;7.834;2024-03-25T16:36:00;2.40;;;0.80;;
2546;SDS011;1283;47.982;7.834;2024-03-25T16:38:27;4.10;;;1.08;;
2546;SDS011;1283;47.982;7.834;2024-03-25T16:40:53;3.95;;;0.60;;
2546;SDS011;1283;47.982;7.834;2024-03-25T16:43:18;1.70;;;0.80;;
2546;SDS011;1283;47.982;7.834;2024-03-25T16:45:44;0.68;;;0.52;;
2546;SDS011;1283;47.982;7.834;2024-03-25T16:48:10;2.38;;;0.93;;
2546;SDS011;1283;47.982;7.834;2024-03-25T16:50:35;1.02;;;0.73;;
2546;SDS011;1283;47.982;7.834;2024-03-25T16:53:01;4.35;;;1.42;;
2546;SDS011;1283;47.982;7.834;2024-03-25T16:55:28;2.10;;;0.90;;